DOP weather

La Puntilla Airport
La Puntilla, Mendoza Province, Argentina

Public forecast

Using degrees Celsius for public forecast. Weather courtesy of forecast.io.

METAR (pilot weather report)

Closest report is El Plumerillo Airport, 8.9 nm (16.4 km) NNE. Retrieved 2019/07/20 17:00 UTC (2 minutes ago):

SAME 201700Z 05005KT CAVOK 16/M01 Q1004

TAF (pilot weather forecast)

Closest forecast is El Plumerillo Airport, 8.9 nm (16.4 km) NNE. Retrieved 2019/07/20 12:00 UTC (5 hours ago):

TAF SAME 201100Z 2012/2112 05005KT 8000 FU SCT030 SCT070 TX18/2020Z TN05/2111Z BECMG 2015/2017 32010KT 9999 SCT030 SCT070 BECMG 2021/2023 28015G30KT 6000 PO SCT030 SCT070